首页
METAR-TAF:

METAR-TAF

机场 :

阿森松島皇家空軍基地

乔治敦, 阿森松岛

纬度: 07-58S, 经度: 014-24W, 海拔: 86米

当前天气观测

该预报发布于17小时和10分钟前的17:50 UTC
风速13节,风向东南
温度 28°C
湿度 58%
气压 1012 hPa
能见度10公里或以上
少量云层高于3000英尺

METAR: FHAW 231750Z 14013KT 9999 FEW030 28/19 Q1012 BLU NOSIG

时间: 11:00 (11:00 UTC)

预报

该预报发布于21小时和30分钟前的13:30 UTC
预报有效从23日的 15点(UTC)到 24日的 09点(UTC)
风速14节,风向东南
能见度10公里或以上
少量云层高于2500英尺
短暂存在
从 23日的 15点(UTC)到 23日的 24点(UTC)
风速16节,风向东南,有时为28节阵风

TAF: FHAW 231330Z 2315/2409 14014KT 9999 FEW025 TEMPO 2315/2324 14016G28KT

超过4000个机场的气象观测和天气预报(METAR&TAF报告)。

可查询的气象台以黄色和红色小点在地图上表示。

将鼠标移到小点上方,可查看气象台名称。

然后点击查看天气观测和预报。

如需切换地图:点击带黑十字的绿色按钮放大地图;点击带横线的绿色按钮缩小地图;或者点击绿色箭头查看邻近地区的地图。


METAR-TAF: